sensor_id;sensor_type;location;lat;lon;timestamp;pressure;altitude;pressure_sealevel;temperature;humidity
19005;BME280;9635;52.078;8.648;2022-12-07T00:03:43;100360.19;;;2.85;90.72
19005;BME280;9635;52.078;8.648;2022-12-07T00:08:47;100347.91;;;2.82;90.77
19005;BME280;9635;52.078;8.648;2022-12-07T00:13:53;100348.59;;;2.69;91.33
19005;BME280;9635;52.078;8.648;2022-12-07T00:18:57;100345.47;;;3.14;89.68
19005;BME280;9635;52.078;8.648;2022-12-07T00:24:01;100338.34;;;2.80;91.60
19005;BME280;9635;52.078;8.648;2022-12-07T00:29:08;100337.97;;;3.05;90.90
19005;BME280;9635;52.078;8.648;2022-12-07T00:34:14;100341.00;;;2.97;91.97
19005;BME280;9635;52.078;8.648;2022-12-07T00:39:17;100339.00;;;3.02;92.12
19005;BME280;9635;52.078;8.648;2022-12-07T00:44:22;100336.00;;;3.26;90.42
19005;BME280;9635;52.078;8.648;2022-12-07T00:49:25;100320.31;;;3.04;91.35
19005;BME280;9635;52.078;8.648;2022-12-07T00:54:28;100324.47;;;2.92;91.04
19005;BME280;9635;52.078;8.648;2022-12-07T00:59:32;100316.56;;;3.25;90.31
19005;BME280;9635;52.078;8.648;2022-12-07T01:04:35;100316.69;;;3.40;88.93
19005;BME280;9635;52.078;8.648;2022-12-07T01:09:38;100319.31;;;3.24;89.05
19005;BME280;9635;52.078;8.648;2022-12-07T01:14:42;100328.13;;;3.24;89.44
19005;BME280;9635;52.078;8.648;2022-12-07T01:19:45;100319.16;;;3.27;88.84
19005;BME280;9635;52.078;8.648;2022-12-07T01:24:48;100321.19;;;3.04;89.67
19005;BME280;9635;52.078;8.648;2022-12-07T01:29:52;100314.47;;;2.80;89.41
19005;BME280;9635;52.078;8.648;2022-12-07T01:34:55;100329.59;;;2.95;89.51
19005;BME280;9635;52.078;8.648;2022-12-07T01:39:58;100327.03;;;2.94;88.80
19005;BME280;9635;52.078;8.648;2022-12-07T01:50:41;100331.69;;;2.71;90.31
19005;BME280;9635;52.078;8.648;2022-12-07T01:55:47;100325.09;;;2.97;88.48
19005;BME280;9635;52.078;8.648;2022-12-07T02:00:52;100321.06;;;2.52;89.73
19005;BME280;9635;52.078;8.648;2022-12-07T02:05:57;100320.84;;;2.76;88.86
19005;BME280;9635;52.078;8.648;2022-12-07T02:11:01;100314.69;;;2.75;87.71
19005;BME280;9635;52.078;8.648;2022-12-07T02:16:14;100312.94;;;2.57;88.57
19005;BME280;9635;52.078;8.648;2022-12-07T02:21:29;100310.88;;;2.45;89.00
19005;BME280;9635;52.078;8.648;2022-12-07T02:27:01;100313.09;;;2.35;89.64
19005;BME280;9635;52.078;8.648;2022-12-07T02:32:16;100315.34;;;2.25;90.17
19005;BME280;9635;52.078;8.648;2022-12-07T02:37:29;100313.66;;;2.42;89.45
19005;BME280;9635;52.078;8.648;2022-12-07T02:42:38;100312.38;;;2.12;89.77
19005;BME280;9635;52.078;8.648;2022-12-07T02:47:45;100306.22;;;2.31;89.27
19005;BME280;9635;52.078;8.648;2022-12-07T02:52:50;100293.53;;;2.00;90.41
19005;BME280;9635;52.078;8.648;2022-12-07T02:58:02;100297.19;;;2.16;89.32
19005;BME280;9635;52.078;8.648;2022-12-07T03:03:11;100299.63;;;2.21;88.84
19005;BME280;9635;52.078;8.648;2022-12-07T03:08:24;100293.78;;;2.14;89.27
19005;BME280;9635;52.078;8.648;2022-12-07T03:13:39;100296.69;;;1.89;89.89
19005;BME280;9635;52.078;8.648;2022-12-07T03:18:48;100288.41;;;1.97;89.61
19005;BME280;9635;52.078;8.648;2022-12-07T03:23:55;100286.38;;;1.83;90.05
19005;BME280;9635;52.078;8.648;2022-12-07T03:29:02;100286.53;;;1.80;91.21
19005;BME280;9635;52.078;8.648;2022-12-07T03:34:12;100283.31;;;2.11;89.11
19005;BME280;9635;52.078;8.648;2022-12-07T03:39:22;100271.13;;;1.69;90.06
19005;BME280;9635;52.078;8.648;2022-12-07T03:44:27;100276.38;;;1.89;89.19
19005;BME280;9635;52.078;8.648;2022-12-07T03:49:37;100271.78;;;1.93;89.09
19005;BME280;9635;52.078;8.648;2022-12-07T03:54:47;100291.34;;;1.90;89.25
19005;BME280;9635;52.078;8.648;2022-12-07T03:59:54;100279.66;;;1.94;89.25
19005;BME280;9635;52.078;8.648;2022-12-07T04:04:59;100279.09;;;1.69;90.62
19005;BME280;9635;52.078;8.648;2022-12-07T04:10:03;100277.00;;;1.94;89.28
19005;BME280;9635;52.078;8.648;2022-12-07T04:15:07;100280.75;;;1.90;89.00
19005;BME280;9635;52.078;8.648;2022-12-07T04:20:12;100274.75;;;1.87;88.85
19005;BME280;9635;52.078;8.648;2022-12-07T04:25:15;100274.59;;;1.90;89.45
19005;BME280;9635;52.078;8.648;2022-12-07T04:30:18;100276.88;;;1.79;89.83
19005;BME280;9635;52.078;8.648;2022-12-07T04:35:22;100287.97;;;1.68;90.48
19005;BME280;9635;52.078;8.648;2022-12-07T04:40:25;100287.25;;;1.83;89.76
19005;BME280;9635;52.078;8.648;2022-12-07T04:45:28;100279.00;;;2.08;88.03
19005;BME280;9635;52.078;8.648;2022-12-07T04:50:32;100283.53;;;1.87;89.61
19005;BME280;9635;52.078;8.648;2022-12-07T04:55:35;100279.75;;;2.12;88.24
19005;BME280;9635;52.078;8.648;2022-12-07T05:00:39;100280.31;;;2.00;88.41
19005;BME280;9635;52.078;8.648;2022-12-07T05:05:43;100286.19;;;2.06;87.52
19005;BME280;9635;52.078;8.648;2022-12-07T05:10:48;100285.94;;;2.11;87.34
19005;BME280;9635;52.078;8.648;2022-12-07T05:15:50;100289.59;;;2.08;87.14
19005;BME280;9635;52.078;8.648;2022-12-07T05:20:55;100294.34;;;1.83;88.24
19005;BME280;9635;52.078;8.648;2022-12-07T05:25:57;100293.63;;;1.79;88.43
19005;BME280;9635;52.078;8.648;2022-12-07T05:31:00;100293.63;;;1.79;88.03
19005;BME280;9635;52.078;8.648;2022-12-07T05:36:05;100287.84;;;2.09;87.17
19005;BME280;9635;52.078;8.648;2022-12-07T05:41:09;100283.38;;;1.71;88.05
19005;BME280;9635;52.078;8.648;2022-12-07T05:46:35;100272.84;;;2.08;87.10
19005;BME280;9635;52.078;8.648;2022-12-07T05:51:39;100271.78;;;1.93;87.23
19005;BME280;9635;52.078;8.648;2022-12-07T05:56:42;100279.88;;;2.09;87.51
19005;BME280;9635;52.078;8.648;2022-12-07T06:01:45;100277.09;;;1.93;87.18
19005;BME280;9635;52.078;8.648;2022-12-07T06:06:49;100276.00;;;1.59;89.58
19005;BME280;9635;52.078;8.648;2022-12-07T06:11:52;100269.16;;;1.93;87.54
19005;BME280;9635;52.078;8.648;2022-12-07T06:17:13;100275.28;;;1.56;88.22
19005;BME280;9635;52.078;8.648;2022-12-07T06:22:18;100275.22;;;1.57;87.39
19005;BME280;9635;52.078;8.648;2022-12-07T06:27:20;100276.63;;;1.45;87.84
19005;BME280;9635;52.078;8.648;2022-12-07T06:32:23;100268.75;;;1.44;88.94
19005;BME280;9635;52.078;8.648;2022-12-07T06:37:27;100281.13;;;1.43;88.85
19005;BME280;9635;52.078;8.648;2022-12-07T06:42:30;100279.06;;;1.50;88.00
19005;BME280;9635;52.078;8.648;2022-12-07T06:47:33;100271.25;;;1.47;87.69
19005;BME280;9635;52.078;8.648;2022-12-07T06:52:48;100287.66;;;1.55;88.26
19005;BME280;9635;52.078;8.648;2022-12-07T06:57:53;100292.47;;;1.26;89.66
19005;BME280;9635;52.078;8.648;2022-12-07T07:02:55;100290.66;;;1.66;87.48
19005;BME280;9635;52.078;8.648;2022-12-07T07:08:00;100293.66;;;1.59;86.82
19005;BME280;9635;52.078;8.648;2022-12-07T07:13:22;100301.28;;;1.27;87.60
19005;BME280;9635;52.078;8.648;2022-12-07T07:18:26;100303.25;;;1.61;86.59
19005;BME280;9635;52.078;8.648;2022-12-07T07:23:30;100305.16;;;1.39;87.79
19005;BME280;9635;52.078;8.648;2022-12-07T07:28:33;100305.25;;;1.37;87.09
19005;BME280;9635;52.078;8.648;2022-12-07T07:33:36;100309.97;;;1.49;86.21
19005;BME280;9635;52.078;8.648;2022-12-07T07:38:40;100313.81;;;1.42;86.54
19005;BME280;9635;52.078;8.648;2022-12-07T07:43:43;100308.19;;;1.09;88.05
19005;BME280;9635;52.078;8.648;2022-12-07T07:48:46;100317.97;;;1.48;86.62
19005;BME280;9635;52.078;8.648;2022-12-07T07:53:50;100318.00;;;1.27;87.01
19005;BME280;9635;52.078;8.648;2022-12-07T07:58:53;100321.88;;;1.39;86.49
19005;BME280;9635;52.078;8.648;2022-12-07T08:03:56;100325.13;;;1.46;85.78
19005;BME280;9635;52.078;8.648;2022-12-07T08:09:00;100329.91;;;1.17;85.57
19005;BME280;9635;52.078;8.648;2022-12-07T08:14:03;100317.84;;;1.31;86.65
19005;BME280;9635;52.078;8.648;2022-12-07T08:19:06;100324.53;;;1.60;85.94
19005;BME280;9635;52.078;8.648;2022-12-07T08:24:10;100322.75;;;1.79;85.67
19005;BME280;9635;52.078;8.648;2022-12-07T08:29:13;100309.63;;;2.52;84.20
19005;BME280;9635;52.078;8.648;2022-12-07T08:34:16;100323.63;;;2.55;82.00
19005;BME280;9635;52.078;8.648;2022-12-07T08:39:20;100324.84;;;2.10;83.86
19005;BME280;9635;52.078;8.648;2022-12-07T08:44:32;100314.88;;;2.34;83.25
19005;BME280;9635;52.078;8.648;2022-12-07T08:49:38;100312.97;;;1.81;84.94
19005;BME280;9635;52.078;8.648;2022-12-07T08:54:43;100311.94;;;2.22;85.22
19005;BME280;9635;52.078;8.648;2022-12-07T08:59:47;100313.84;;;2.20;83.72
19005;BME280;9635;52.078;8.648;2022-12-07T09:04:49;100301.22;;;3.48;81.07
19005;BME280;9635;52.078;8.648;2022-12-07T09:09:54;100316.69;;;3.57;78.72
19005;BME280;9635;52.078;8.648;2022-12-07T09:14:57;100315.47;;;3.12;79.84
19005;BME280;9635;52.078;8.648;2022-12-07T09:20:03;100326.38;;;2.71;81.74
19005;BME280;9635;52.078;8.648;2022-12-07T09:25:08;100331.00;;;2.85;83.64
19005;BME280;9635;52.078;8.648;2022-12-07T09:30:12;100316.81;;;2.50;83.76
19005;BME280;9635;52.078;8.648;2022-12-07T09:35:15;100325.34;;;2.56;83.32
19005;BME280;9635;52.078;8.648;2022-12-07T09:40:20;100326.34;;;2.54;83.08
19005;BME280;9635;52.078;8.648;2022-12-07T09:45:27;100329.59;;;2.23;83.26
19005;BME280;9635;52.078;8.648;2022-12-07T09:50:33;100318.25;;;2.57;83.29
19005;BME280;9635;52.078;8.648;2022-12-07T09:55:38;100321.25;;;3.20;81.49
19005;BME280;9635;52.078;8.648;2022-12-07T10:00:43;100320.03;;;2.56;81.93
19005;BME280;9635;52.078;8.648;2022-12-07T10:05:49;100321.09;;;2.89;81.85
19005;BME280;9635;52.078;8.648;2022-12-07T10:10:55;100321.88;;;2.35;83.96
19005;BME280;9635;52.078;8.648;2022-12-07T10:15:58;100312.78;;;2.60;83.09
19005;BME280;9635;52.078;8.648;2022-12-07T10:21:13;100297.28;;;2.51;83.56
19005;BME280;9635;52.078;8.648;2022-12-07T10:26:28;100302.84;;;2.27;83.85
19005;BME280;9635;52.078;8.648;2022-12-07T10:31:31;100300.66;;;3.08;82.69
19005;BME280;9635;52.078;8.648;2022-12-07T10:36:37;100294.63;;;3.22;81.39
19005;BME280;9635;52.078;8.648;2022-12-07T10:41:54;100292.31;;;3.16;81.65
19005;BME280;9635;52.078;8.648;2022-12-07T10:47:12;100288.22;;;3.43;80.89
19005;BME280;9635;52.078;8.648;2022-12-07T10:52:27;100283.78;;;3.09;81.35
19005;BME280;9635;52.078;8.648;2022-12-07T10:57:46;100284.19;;;2.84;81.05
19005;BME280;9635;52.078;8.648;2022-12-07T11:03:03;100275.91;;;3.08;81.07
19005;BME280;9635;52.078;8.648;2022-12-07T11:08:18;100270.03;;;3.36;80.94
19005;BME280;9635;52.078;8.648;2022-12-07T11:13:29;100275.28;;;3.53;79.57
19005;BME280;9635;52.078;8.648;2022-12-07T11:18:46;100259.56;;;3.33;79.65
19005;BME280;9635;52.078;8.648;2022-12-07T11:23:56;100269.31;;;3.65;78.85
19005;BME280;9635;52.078;8.648;2022-12-07T11:34:41;100257.94;;;3.79;78.55
19005;BME280;9635;52.078;8.648;2022-12-07T11:39:51;100249.69;;;3.52;78.44
19005;BME280;9635;52.078;8.648;2022-12-07T11:45:00;100243.19;;;3.24;79.32
19005;BME280;9635;52.078;8.648;2022-12-07T11:50:26;100244.69;;;3.13;78.51
19005;BME280;9635;52.078;8.648;2022-12-07T11:55:37;100233.63;;;3.87;77.60
19005;BME280;9635;52.078;8.648;2022-12-07T12:00:44;100230.09;;;3.04;79.25
19005;BME280;9635;52.078;8.648;2022-12-07T12:05:46;100228.09;;;3.25;78.87
19005;BME280;9635;52.078;8.648;2022-12-07T12:10:55;100223.13;;;3.19;77.47
19005;BME280;9635;52.078;8.648;2022-12-07T12:16:16;100221.50;;;4.89;74.65
19005;BME280;9635;52.078;8.648;2022-12-07T12:21:26;100212.06;;;5.28;70.65
19005;BME280;9635;52.078;8.648;2022-12-07T12:26:32;100209.97;;;5.47;70.46
19005;BME280;9635;52.078;8.648;2022-12-07T12:31:38;100206.31;;;6.46;67.86
19005;BME280;9635;52.078;8.648;2022-12-07T12:36:44;100196.31;;;6.62;65.58
19005;BME280;9635;52.078;8.648;2022-12-07T12:41:56;100200.25;;;6.02;67.88
19005;BME280;9635;52.078;8.648;2022-12-07T12:52:53;100196.50;;;4.77;70.34
19005;BME280;9635;52.078;8.648;2022-12-07T12:58:29;100198.28;;;4.47;72.09
19005;BME280;9635;52.078;8.648;2022-12-07T13:03:33;100195.19;;;4.38;72.18
19005;BME280;9635;52.078;8.648;2022-12-07T13:08:40;100188.22;;;4.06;72.94
19005;BME280;9635;52.078;8.648;2022-12-07T13:13:44;100193.03;;;3.99;73.96
19005;BME280;9635;52.078;8.648;2022-12-07T13:18:46;100195.28;;;3.75;74.57
19005;BME280;9635;52.078;8.648;2022-12-07T13:23:57;100181.69;;;4.27;72.58
19005;BME280;9635;52.078;8.648;2022-12-07T13:29:09;100183.59;;;4.25;72.70
19005;BME280;9635;52.078;8.648;2022-12-07T13:34:37;100175.47;;;4.12;72.77
19005;BME280;9635;52.078;8.648;2022-12-07T13:39:47;100169.56;;;4.37;72.01
19005;BME280;9635;52.078;8.648;2022-12-07T13:44:50;100167.47;;;4.58;71.61
19005;BME280;9635;52.078;8.648;2022-12-07T13:49:54;100156.88;;;4.43;71.93
19005;BME280;9635;52.078;8.648;2022-12-07T13:55:00;100167.13;;;4.49;72.39
19005;BME280;9635;52.078;8.648;2022-12-07T14:00:06;100167.75;;;3.92;74.01
19005;BME280;9635;52.078;8.648;2022-12-07T14:05:23;100163.19;;;4.10;74.15
19005;BME280;9635;52.078;8.648;2022-12-07T14:10:29;100169.47;;;4.09;73.11
19005;BME280;9635;52.078;8.648;2022-12-07T14:15:34;100151.13;;;3.72;74.49
19005;BME280;9635;52.078;8.648;2022-12-07T14:20:39;100149.75;;;3.81;74.12
19005;BME280;9635;52.078;8.648;2022-12-07T14:25:47;100141.72;;;3.67;74.13
19005;BME280;9635;52.078;8.648;2022-12-07T14:30:52;100141.28;;;3.59;74.27
19005;BME280;9635;52.078;8.648;2022-12-07T14:35:55;100144.72;;;3.77;74.19
19005;BME280;9635;52.078;8.648;2022-12-07T14:41:01;100142.41;;;3.39;75.08
19005;BME280;9635;52.078;8.648;2022-12-07T14:46:17;100142.94;;;2.96;76.46
19005;BME280;9635;52.078;8.648;2022-12-07T14:51:20;100145.16;;;3.04;76.63
19005;BME280;9635;52.078;8.648;2022-12-07T14:56:44;100137.59;;;3.30;75.36
19005;BME280;9635;52.078;8.648;2022-12-07T15:01:50;100130.94;;;3.38;74.73
19005;BME280;9635;52.078;8.648;2022-12-07T15:06:56;100132.03;;;3.50;74.47
19005;BME280;9635;52.078;8.648;2022-12-07T15:12:00;100137.88;;;3.41;74.36
19005;BME280;9635;52.078;8.648;2022-12-07T15:17:04;100138.91;;;3.38;75.00
19005;BME280;9635;52.078;8.648;2022-12-07T15:22:11;100131.72;;;3.07;75.59
19005;BME280;9635;52.078;8.648;2022-12-07T15:27:15;100133.22;;;3.28;75.72
19005;BME280;9635;52.078;8.648;2022-12-07T15:32:18;100132.28;;;3.30;75.59
19005;BME280;9635;52.078;8.648;2022-12-07T15:37:25;100126.72;;;3.18;75.50
19005;BME280;9635;52.078;8.648;2022-12-07T15:42:33;100123.88;;;3.37;75.79
19005;BME280;9635;52.078;8.648;2022-12-07T15:47:41;100137.47;;;2.82;78.17
19005;BME280;9635;52.078;8.648;2022-12-07T15:53:11;100126.69;;;3.02;79.19
19005;BME280;9635;52.078;8.648;2022-12-07T15:58:16;100132.03;;;2.50;81.68
19005;BME280;9635;52.078;8.648;2022-12-07T16:03:28;100133.91;;;2.13;83.74
19005;BME280;9635;52.078;8.648;2022-12-07T16:08:51;100137.88;;;2.22;83.10
19005;BME280;9635;52.078;8.648;2022-12-07T16:13:57;100131.31;;;1.58;84.13
19005;BME280;9635;52.078;8.648;2022-12-07T16:19:04;100126.50;;;1.28;85.31
19005;BME280;9635;52.078;8.648;2022-12-07T16:24:12;100114.56;;;1.39;84.28
19005;BME280;9635;52.078;8.648;2022-12-07T16:29:19;100124.00;;;1.63;84.43
19005;BME280;9635;52.078;8.648;2022-12-07T16:34:22;100115.72;;;1.52;83.96
19005;BME280;9635;52.078;8.648;2022-12-07T16:39:25;100110.44;;;1.33;84.77
19005;BME280;9635;52.078;8.648;2022-12-07T16:44:30;100107.78;;;1.33;84.54
19005;BME280;9635;52.078;8.648;2022-12-07T16:49:33;100104.84;;;1.39;84.49
19005;BME280;9635;52.078;8.648;2022-12-07T16:54:36;100100.69;;;1.53;83.83
19005;BME280;9635;52.078;8.648;2022-12-07T16:59:40;100097.41;;;1.47;83.75
19005;BME280;9635;52.078;8.648;2022-12-07T17:04:43;100097.53;;;1.44;83.87
19005;BME280;9635;52.078;8.648;2022-12-07T17:09:46;100089.16;;;1.54;84.10
19005;BME280;9635;52.078;8.648;2022-12-07T17:14:50;100084.44;;;1.60;83.66
19005;BME280;9635;52.078;8.648;2022-12-07T17:20:11;100080.63;;;1.66;83.65
19005;BME280;9635;52.078;8.648;2022-12-07T17:25:14;100066.38;;;1.68;83.87
19005;BME280;9635;52.078;8.648;2022-12-07T17:30:19;100059.94;;;1.74;83.78
19005;BME280;9635;52.078;8.648;2022-12-07T17:35:22;100070.88;;;1.66;83.83
19005;BME280;9635;52.078;8.648;2022-12-07T17:40:24;100062.63;;;1.55;84.45
19005;BME280;9635;52.078;8.648;2022-12-07T17:45:29;100067.84;;;1.57;84.69
19005;BME280;9635;52.078;8.648;2022-12-07T17:50:32;100060.72;;;1.76;84.76
19005;BME280;9635;52.078;8.648;2022-12-07T17:55:53;100068.84;;;1.54;85.98
19005;BME280;9635;52.078;8.648;2022-12-07T18:01:17;100057.06;;;1.79;86.21
19005;BME280;9635;52.078;8.648;2022-12-07T18:06:25;100051.81;;;1.77;86.77
19005;BME280;9635;52.078;8.648;2022-12-07T18:11:27;100055.78;;;1.68;86.86
19005;BME280;9635;52.078;8.648;2022-12-07T18:16:33;100045.59;;;1.78;87.09
19005;BME280;9635;52.078;8.648;2022-12-07T18:21:36;100043.63;;;1.64;87.69
19005;BME280;9635;52.078;8.648;2022-12-07T18:26:40;100043.94;;;1.58;88.25
19005;BME280;9635;52.078;8.648;2022-12-07T18:31:44;100039.56;;;1.57;86.94
19005;BME280;9635;52.078;8.648;2022-12-07T18:36:48;100033.28;;;1.60;87.36
19005;BME280;9635;52.078;8.648;2022-12-07T18:41:51;100041.16;;;1.79;86.10
19005;BME280;9635;52.078;8.648;2022-12-07T18:46:55;100034.06;;;1.79;85.81
19005;BME280;9635;52.078;8.648;2022-12-07T18:51:58;100038.03;;;1.70;85.75
19005;BME280;9635;52.078;8.648;2022-12-07T18:57:01;100034.50;;;1.70;85.26
19005;BME280;9635;52.078;8.648;2022-12-07T19:02:05;100029.31;;;1.86;85.69
19005;BME280;9635;52.078;8.648;2022-12-07T19:07:08;100019.94;;;1.61;85.57
19005;BME280;9635;52.078;8.648;2022-12-07T19:12:12;100025.34;;;1.94;84.77
19005;BME280;9635;52.078;8.648;2022-12-07T19:17:17;100022.38;;;2.18;83.84
19005;BME280;9635;52.078;8.648;2022-12-07T19:22:21;100010.91;;;2.00;84.69
19005;BME280;9635;52.078;8.648;2022-12-07T19:27:24;100015.13;;;2.04;84.82
19005;BME280;9635;52.078;8.648;2022-12-07T19:32:29;100009.91;;;2.03;84.88
19005;BME280;9635;52.078;8.648;2022-12-07T19:37:31;100002.59;;;1.90;84.93
19005;BME280;9635;52.078;8.648;2022-12-07T19:42:34;100006.25;;;2.05;84.81
19005;BME280;9635;52.078;8.648;2022-12-07T19:47:38;100001.09;;;2.02;84.78
19005;BME280;9635;52.078;8.648;2022-12-07T19:52:41;99992.81;;;2.08;85.48
19005;BME280;9635;52.078;8.648;2022-12-07T19:57:44;99984.59;;;1.97;85.68
19005;BME280;9635;52.078;8.648;2022-12-07T20:02:51;99979.84;;;2.04;86.20
19005;BME280;9635;52.078;8.648;2022-12-07T20:07:54;99977.34;;;2.01;86.37
19005;BME280;9635;52.078;8.648;2022-12-07T20:12:57;99955.66;;;2.10;85.85
19005;BME280;9635;52.078;8.648;2022-12-07T20:18:18;99959.22;;;2.26;85.38
19005;BME280;9635;52.078;8.648;2022-12-07T20:23:22;99947.16;;;2.21;85.66
19005;BME280;9635;52.078;8.648;2022-12-07T20:28:24;99951.47;;;2.06;85.91
19005;BME280;9635;52.078;8.648;2022-12-07T20:33:29;99948.72;;;2.07;85.75
19005;BME280;9635;52.078;8.648;2022-12-07T20:38:32;99948.09;;;2.20;86.08
19005;BME280;9635;52.078;8.648;2022-12-07T20:43:35;99931.13;;;2.39;85.36
19005;BME280;9635;52.078;8.648;2022-12-07T20:48:39;99929.50;;;2.04;86.61
19005;BME280;9635;52.078;8.648;2022-12-07T20:53:42;99926.34;;;2.13;86.26
19005;BME280;9635;52.078;8.648;2022-12-07T20:58:44;99932.59;;;2.12;86.30
19005;BME280;9635;52.078;8.648;2022-12-07T21:03:49;99917.28;;;2.01;86.03
19005;BME280;9635;52.078;8.648;2022-12-07T21:08:53;99922.75;;;1.81;87.17
19005;BME280;9635;52.078;8.648;2022-12-07T21:13:56;99921.22;;;2.10;85.94
19005;BME280;9635;52.078;8.648;2022-12-07T21:19:01;99916.50;;;1.99;85.77
19005;BME280;9635;52.078;8.648;2022-12-07T21:24:05;99915.13;;;1.75;86.74
19005;BME280;9635;52.078;8.648;2022-12-07T21:29:08;99907.81;;;1.80;86.74
19005;BME280;9635;52.078;8.648;2022-12-07T21:34:12;99910.69;;;1.75;86.50
19005;BME280;9635;52.078;8.648;2022-12-07T21:39:15;99906.16;;;1.77;86.46
19005;BME280;9635;52.078;8.648;2022-12-07T21:44:18;99903.19;;;1.83;86.42
19005;BME280;9635;52.078;8.648;2022-12-07T21:49:22;99909.97;;;1.89;86.47
19005;BME280;9635;52.078;8.648;2022-12-07T21:54:25;99900.63;;;1.64;87.00
19005;BME280;9635;52.078;8.648;2022-12-07T21:59:28;99897.25;;;1.95;85.86
19005;BME280;9635;52.078;8.648;2022-12-07T22:04:36;99902.66;;;1.77;86.39
19005;BME280;9635;52.078;8.648;2022-12-07T22:09:39;99893.88;;;1.59;85.95
19005;BME280;9635;52.078;8.648;2022-12-07T22:14:42;99894.00;;;1.90;85.04
19005;BME280;9635;52.078;8.648;2022-12-07T22:20:06;99898.47;;;1.55;85.88
19005;BME280;9635;52.078;8.648;2022-12-07T22:25:10;99888.25;;;1.82;85.60
19005;BME280;9635;52.078;8.648;2022-12-07T22:30:13;99882.84;;;2.01;85.11
19005;BME280;9635;52.078;8.648;2022-12-07T22:35:18;99887.63;;;1.77;85.60
19005;BME280;9635;52.078;8.648;2022-12-07T22:40:21;99882.00;;;1.83;85.80
19005;BME280;9635;52.078;8.648;2022-12-07T22:45:23;99878.78;;;1.94;85.03
19005;BME280;9635;52.078;8.648;2022-12-07T22:50:28;99859.44;;;2.09;84.55
19005;BME280;9635;52.078;8.648;2022-12-07T22:55:30;99863.22;;;1.88;85.10
19005;BME280;9635;52.078;8.648;2022-12-07T23:00:33;99859.16;;;1.98;84.27
19005;BME280;9635;52.078;8.648;2022-12-07T23:05:41;99858.28;;;1.64;85.97
19005;BME280;9635;52.078;8.648;2022-12-07T23:10:45;99859.63;;;1.73;85.69
19005;BME280;9635;52.078;8.648;2022-12-07T23:15:49;99852.41;;;1.75;85.12
19005;BME280;9635;52.078;8.648;2022-12-07T23:20:56;99843.41;;;1.62;85.54
19005;BME280;9635;52.078;8.648;2022-12-07T23:26:01;99838.66;;;1.68;84.15
19005;BME280;9635;52.078;8.648;2022-12-07T23:31:06;99829.59;;;1.57;85.34
19005;BME280;9635;52.078;8.648;2022-12-07T23:36:13;99825.22;;;1.56;84.71
19005;BME280;9635;52.078;8.648;2022-12-07T23:41:19;99823.56;;;1.86;83.86
19005;BME280;9635;52.078;8.648;2022-12-07T23:46:24;99807.38;;;1.59;84.60
19005;BME280;9635;52.078;8.648;2022-12-07T23:51:29;99802.84;;;1.61;84.81
19005;BME280;9635;52.078;8.648;2022-12-07T23:56:33;99793.53;;;1.37;85.90
